Soaring Guidance
Issued by NWS Reno, NV

Home | Current Version | Previous Version | Text Only | Print | Product List | Glossary On
Versions: 1 2 3 4 5 6 7
000
UXUS97 KREV 281357
SRGREV

SOARING FORECAST
NATIONAL WEATHER SERVICE - RENO NV
700 AM PDT FRI APR 28 2017

THIS SOARING FORECAST IS FOR THE EASTERN SIERRA AND WESTERN NEVADA
WITH SPECIFIC INDICES FOR THE GREATER RENO AREA.

THIS FORECAST IS PREPARED DAILY BY 700 AM AND IS NOT UPDATED.

FOR CURRENT FLIGHT CONDITIONS...FORECASTS...AND ADVISORIES...ACCESS
YOUR LOCAL BRIEFING OUTLET OR FLIGHT SERVICE STATION.

*******************************************************************
FORECASTED LOCAL INDICES FOR RENO:        TODAY     YESTERDAY
FORECASTED MAX TEMP AT RENO (DEG F).....     58          62
FORECASTED TRIGGER TEMPERATURE (DEG F)..     40          52
   EXCEEDED YESTERDAY BY 955 AM PDT
FORECASTED MAXIMUM ALTITUDE (FT MSL)....  14700       13300
FORECASTED SOARING INDEX (FPM)..........    741         639
FORECASTED K-INDEX.........VALID 18Z....     MM          17
FORECASTED K-INDEX.........VALID 00Z....     MM          27
FORECASTED LIFTED INDEX....VALID 18Z....     MM          10
FORECASTED LIFTED INDEX....VALID 00Z....     MM           6

AFTERNOON WINDS ALOFT FORECAST
MSL (FT) WIND/TEMP
9000  0314/-05
10000 0218/-06
12000 0225/-10
14000 0135/-12
16000 0148/-14
18000 3586/-16
24000 8406/-26
30000 8421/-40
34000 8342/-46
39000 8344/-56

SLIDE MOUNTAIN DATA:
     DATE       TIME     TEMP  DEWPT   RH         WIND (MPH)
                        (F)   (F)           | DIR  SPEED GUST
2017-04-28    05:20      19     4     38    | 290   16   20
2017-04-28    05:00      19     4     38    | 296   13   17
2017-04-28    04:50      20    -1     23    | 291   18   22
2017-04-28    04:30      19     1     30    | 295   18   21

RENO TAF FORECAST:
KRNO 281120Z 2812/2912 34008KT P6SM SKC
     FM281600 02016G24KT P6SM SKC
     FM282300 07009KT P6SM SKC
     FM290900 VRB03KT P6SM SKC

CARSON CITY TAF FORECAST:
KCXP 281120Z 2812/2912 VRB04KT P6SM SCT060
     FM281800 06013G22KT P6SM SKC
     FM290600 VRB03KT P6SM SKC

OUTLOOK FOR THE RENO-CARSON CITY-MINDEN AREA:
.SATURDAY...SUNNY. HIGHS 61 TO 66. NORTHEAST WINDS AROUND 10 MPH.

SUNRISE AND SUNSET
APRIL 28 2017.........SUNRISE   603 AM PDT   SUNSET   750 PM PDT
APRIL 29 2017.........SUNRISE   602 AM PDT   SUNSET   751 PM PDT



USA.gov is the U.S. government's official web portal to all federal, state and local government web resources and services.